sensor_id;sensor_type;location;lat;lon;timestamp;P1;durP1;ratioP1;P2;durP2;ratioP2
60016;SDS011;45869;52.698;6.210;2022-08-25T00:01:31;8.98;;;7.40;;
60016;SDS011;45869;52.698;6.210;2022-08-25T00:03:58;8.27;;;6.78;;
60016;SDS011;45869;52.698;6.210;2022-08-25T00:06:24;7.97;;;6.88;;
60016;SDS011;45869;52.698;6.210;2022-08-25T00:08:50;8.70;;;7.20;;
60016;SDS011;45869;52.698;6.210;2022-08-25T00:11:24;9.00;;;6.87;;
60016;SDS011;45869;52.698;6.210;2022-08-25T00:13:52;11.07;;;7.80;;
60016;SDS011;45869;52.698;6.210;2022-08-25T00:16:20;8.20;;;7.40;;
60016;SDS011;45869;52.698;6.210;2022-08-25T00:18:48;7.90;;;6.97;;
60016;SDS011;45869;52.698;6.210;2022-08-25T00:21:14;8.57;;;7.15;;
60016;SDS011;45869;52.698;6.210;2022-08-25T00:23:43;9.00;;;7.88;;
60016;SDS011;45869;52.698;6.210;2022-08-25T00:26:10;8.48;;;7.57;;
60016;SDS011;45869;52.698;6.210;2022-08-25T00:28:36;10.02;;;6.78;;
60016;SDS011;45869;52.698;6.210;2022-08-25T00:31:04;8.52;;;7.00;;
60016;SDS011;45869;52.698;6.210;2022-08-25T00:33:33;6.88;;;6.03;;
60016;SDS011;45869;52.698;6.210;2022-08-25T00:35:59;9.82;;;6.50;;
60016;SDS011;45869;52.698;6.210;2022-08-25T00:38:25;7.90;;;6.55;;
60016;SDS011;45869;52.698;6.210;2022-08-25T00:40:51;12.57;;;6.72;;
60016;SDS011;45869;52.698;6.210;2022-08-25T00:43:50;7.63;;;5.80;;
60016;SDS011;45869;52.698;6.210;2022-08-25T00:46:20;7.38;;;5.55;;
60016;SDS011;45869;52.698;6.210;2022-08-25T00:48:47;8.15;;;5.82;;
60016;SDS011;45869;52.698;6.210;2022-08-25T00:51:16;8.48;;;5.90;;
60016;SDS011;45869;52.698;6.210;2022-08-25T00:53:44;7.50;;;5.22;;
60016;SDS011;45869;52.698;6.210;2022-08-25T00:56:13;7.60;;;4.85;;
60016;SDS011;45869;52.698;6.210;2022-08-25T00:58:39;6.95;;;5.68;;
60016;SDS011;45869;52.698;6.210;2022-08-25T01:01:07;7.10;;;5.80;;
60016;SDS011;45869;52.698;6.210;2022-08-25T01:03:36;10.88;;;5.88;;
60016;SDS011;45869;52.698;6.210;2022-08-25T01:06:02;7.97;;;4.93;;
60016;SDS011;45869;52.698;6.210;2022-08-25T01:08:29;8.77;;;5.22;;
60016;SDS011;45869;52.698;6.210;2022-08-25T01:10:56;6.63;;;4.85;;
60016;SDS011;45869;52.698;6.210;2022-08-25T01:13:46;9.20;;;4.50;;
60016;SDS011;45869;52.698;6.210;2022-08-25T01:16:18;7.70;;;4.30;;
60016;SDS011;45869;52.698;6.210;2022-08-25T01:18:52;7.60;;;4.55;;
60016;SDS011;45869;52.698;6.210;2022-08-25T01:21:24;6.80;;;4.50;;
60016;SDS011;45869;52.698;6.210;2022-08-25T01:23:50;9.52;;;4.60;;
60016;SDS011;45869;52.698;6.210;2022-08-25T01:28:44;8.38;;;4.65;;
60016;SDS011;45869;52.698;6.210;2022-08-25T01:31:29;5.68;;;4.07;;
60016;SDS011;45869;52.698;6.210;2022-08-25T01:33:56;6.03;;;3.85;;
60016;SDS011;45869;52.698;6.210;2022-08-25T01:36:26;6.82;;;4.00;;
60016;SDS011;45869;52.698;6.210;2022-08-25T01:38:52;7.22;;;4.07;;
60016;SDS011;45869;52.698;6.210;2022-08-25T01:43:55;5.85;;;3.53;;
60016;SDS011;45869;52.698;6.210;2022-08-25T01:46:21;5.85;;;3.25;;
60016;SDS011;45869;52.698;6.210;2022-08-25T01:48:47;6.35;;;3.40;;
60016;SDS011;45869;52.698;6.210;2022-08-25T01:51:13;5.97;;;3.10;;
60016;SDS011;45869;52.698;6.210;2022-08-25T01:53:39;8.73;;;3.35;;
60016;SDS011;45869;52.698;6.210;2022-08-25T01:56:06;5.10;;;2.90;;
60016;SDS011;45869;52.698;6.210;2022-08-25T01:58:34;6.53;;;3.30;;
60016;SDS011;45869;52.698;6.210;2022-08-25T02:01:01;5.30;;;3.10;;
60016;SDS011;45869;52.698;6.210;2022-08-25T02:05:57;6.25;;;3.17;;
60016;SDS011;45869;52.698;6.210;2022-08-25T02:08:23;7.88;;;3.20;;
60016;SDS011;45869;52.698;6.210;2022-08-25T02:10:50;6.68;;;2.85;;
60016;SDS011;45869;52.698;6.210;2022-08-25T02:13:17;6.95;;;3.20;;
60016;SDS011;45869;52.698;6.210;2022-08-25T02:15:46;7.82;;;3.28;;
60016;SDS011;45869;52.698;6.210;2022-08-25T02:18:14;5.55;;;2.90;;
60016;SDS011;45869;52.698;6.210;2022-08-25T02:20:40;7.07;;;2.97;;
60016;SDS011;45869;52.698;6.210;2022-08-25T02:23:06;7.95;;;2.92;;
60016;SDS011;45869;52.698;6.210;2022-08-25T02:25:32;6.65;;;2.90;;
60016;SDS011;45869;52.698;6.210;2022-08-25T02:27:58;5.60;;;3.25;;
60016;SDS011;45869;52.698;6.210;2022-08-25T02:30:24;5.85;;;3.00;;
60016;SDS011;45869;52.698;6.210;2022-08-25T02:32:50;5.57;;;3.17;;
60016;SDS011;45869;52.698;6.210;2022-08-25T02:35:17;4.93;;;3.10;;
60016;SDS011;45869;52.698;6.210;2022-08-25T02:37:43;7.07;;;2.97;;
60016;SDS011;45869;52.698;6.210;2022-08-25T02:40:09;4.88;;;3.10;;
60016;SDS011;45869;52.698;6.210;2022-08-25T02:42:45;5.23;;;2.70;;
60016;SDS011;45869;52.698;6.210;2022-08-25T02:45:11;7.20;;;3.00;;
60016;SDS011;45869;52.698;6.210;2022-08-25T02:47:38;6.95;;;3.10;;
60016;SDS011;45869;52.698;6.210;2022-08-25T02:50:04;6.47;;;3.20;;
60016;SDS011;45869;52.698;6.210;2022-08-25T02:52:30;6.85;;;3.40;;
60016;SDS011;45869;52.698;6.210;2022-08-25T02:54:56;4.43;;;2.80;;
60016;SDS011;45869;52.698;6.210;2022-08-25T02:57:22;5.00;;;2.75;;
60016;SDS011;45869;52.698;6.210;2022-08-25T02:59:49;4.85;;;2.70;;
60016;SDS011;45869;52.698;6.210;2022-08-25T03:02:15;8.75;;;3.42;;
60016;SDS011;45869;52.698;6.210;2022-08-25T03:04:42;4.40;;;3.10;;
60016;SDS011;45869;52.698;6.210;2022-08-25T03:07:08;6.55;;;3.00;;
60016;SDS011;45869;52.698;6.210;2022-08-25T03:09:41;6.43;;;2.60;;
60016;SDS011;45869;52.698;6.210;2022-08-25T03:12:07;4.90;;;2.58;;
60016;SDS011;45869;52.698;6.210;2022-08-25T03:14:36;9.07;;;2.92;;
60016;SDS011;45869;52.698;6.210;2022-08-25T03:17:03;3.42;;;2.80;;
60016;SDS011;45869;52.698;6.210;2022-08-25T03:19:29;4.97;;;2.65;;
60016;SDS011;45869;52.698;6.210;2022-08-25T03:21:55;5.30;;;2.95;;
60016;SDS011;45869;52.698;6.210;2022-08-25T03:24:22;6.15;;;2.80;;
60016;SDS011;45869;52.698;6.210;2022-08-25T03:26:48;8.10;;;2.80;;
60016;SDS011;45869;52.698;6.210;2022-08-25T03:29:21;8.98;;;3.42;;
60016;SDS011;45869;52.698;6.210;2022-08-25T03:31:47;6.95;;;2.92;;
60016;SDS011;45869;52.698;6.210;2022-08-25T03:34:14;8.05;;;2.90;;
60016;SDS011;45869;52.698;6.210;2022-08-25T03:36:44;6.45;;;2.80;;
60016;SDS011;45869;52.698;6.210;2022-08-25T03:39:11;5.72;;;2.80;;
60016;SDS011;45869;52.698;6.210;2022-08-25T03:41:37;6.05;;;3.10;;
60016;SDS011;45869;52.698;6.210;2022-08-25T03:44:04;7.22;;;2.83;;
60016;SDS011;45869;52.698;6.210;2022-08-25T03:46:35;4.60;;;2.70;;
60016;SDS011;45869;52.698;6.210;2022-08-25T03:49:02;5.05;;;2.58;;
60016;SDS011;45869;52.698;6.210;2022-08-25T03:51:30;10.15;;;2.70;;
60016;SDS011;45869;52.698;6.210;2022-08-25T03:53:56;3.83;;;2.67;;
60016;SDS011;45869;52.698;6.210;2022-08-25T03:56:23;6.78;;;2.92;;
60016;SDS011;45869;52.698;6.210;2022-08-25T03:58:49;6.00;;;3.00;;
60016;SDS011;45869;52.698;6.210;2022-08-25T04:01:15;9.98;;;3.15;;
60016;SDS011;45869;52.698;6.210;2022-08-25T04:03:41;4.30;;;2.90;;
60016;SDS011;45869;52.698;6.210;2022-08-25T04:06:08;5.97;;;3.10;;
60016;SDS011;45869;52.698;6.210;2022-08-25T04:08:34;5.55;;;2.78;;
60016;SDS011;45869;52.698;6.210;2022-08-25T04:11:17;4.25;;;2.67;;
60016;SDS011;45869;52.698;6.210;2022-08-25T04:13:46;7.60;;;2.90;;
60016;SDS011;45869;52.698;6.210;2022-08-25T04:16:13;4.55;;;2.92;;
60016;SDS011;45869;52.698;6.210;2022-08-25T04:18:39;4.93;;;2.95;;
60016;SDS011;45869;52.698;6.210;2022-08-25T04:21:06;6.90;;;3.20;;
60016;SDS011;45869;52.698;6.210;2022-08-25T04:23:34;6.28;;;3.03;;
60016;SDS011;45869;52.698;6.210;2022-08-25T04:26:00;5.18;;;3.25;;
60016;SDS011;45869;52.698;6.210;2022-08-25T04:28:27;5.32;;;3.30;;
60016;SDS011;45869;52.698;6.210;2022-08-25T04:30:53;6.82;;;3.10;;
60016;SDS011;45869;52.698;6.210;2022-08-25T04:33:19;5.93;;;3.42;;
60016;SDS011;45869;52.698;6.210;2022-08-25T04:35:46;6.20;;;3.10;;
60016;SDS011;45869;52.698;6.210;2022-08-25T04:38:12;5.43;;;2.90;;
60016;SDS011;45869;52.698;6.210;2022-08-25T04:40:38;7.20;;;3.30;;
60016;SDS011;45869;52.698;6.210;2022-08-25T04:43:04;7.82;;;3.47;;
60016;SDS011;45869;52.698;6.210;2022-08-25T04:45:31;6.40;;;2.97;;
60016;SDS011;45869;52.698;6.210;2022-08-25T04:48:00;5.22;;;3.20;;
60016;SDS011;45869;52.698;6.210;2022-08-25T04:50:26;6.47;;;3.50;;
60016;SDS011;45869;52.698;6.210;2022-08-25T04:52:53;5.03;;;3.42;;
60016;SDS011;45869;52.698;6.210;2022-08-25T04:55:19;6.40;;;3.00;;
60016;SDS011;45869;52.698;6.210;2022-08-25T04:57:45;6.93;;;3.10;;
60016;SDS011;45869;52.698;6.210;2022-08-25T05:00:11;5.13;;;3.40;;
60016;SDS011;45869;52.698;6.210;2022-08-25T05:02:37;9.70;;;3.90;;
60016;SDS011;45869;52.698;6.210;2022-08-25T05:05:06;6.25;;;3.47;;
60016;SDS011;45869;52.698;6.210;2022-08-25T05:07:32;6.50;;;3.50;;
60016;SDS011;45869;52.698;6.210;2022-08-25T05:09:58;8.85;;;3.20;;
60016;SDS011;45869;52.698;6.210;2022-08-25T05:12:24;5.78;;;3.70;;
60016;SDS011;45869;52.698;6.210;2022-08-25T05:14:51;4.63;;;3.28;;
60016;SDS011;45869;52.698;6.210;2022-08-25T05:17:17;9.02;;;3.40;;
60016;SDS011;45869;52.698;6.210;2022-08-25T05:19:43;6.55;;;3.30;;
60016;SDS011;45869;52.698;6.210;2022-08-25T05:22:09;7.55;;;3.10;;
60016;SDS011;45869;52.698;6.210;2022-08-25T05:24:45;7.90;;;3.28;;
60016;SDS011;45869;52.698;6.210;2022-08-25T05:27:11;7.47;;;3.70;;
60016;SDS011;45869;52.698;6.210;2022-08-25T05:29:37;7.35;;;3.42;;
60016;SDS011;45869;52.698;6.210;2022-08-25T05:32:03;5.20;;;3.10;;
60016;SDS011;45869;52.698;6.210;2022-08-25T05:34:29;13.95;;;3.58;;
60016;SDS011;45869;52.698;6.210;2022-08-25T05:36:55;6.25;;;3.45;;
60016;SDS011;45869;52.698;6.210;2022-08-25T05:39:24;4.93;;;3.20;;
60016;SDS011;45869;52.698;6.210;2022-08-25T05:41:50;7.18;;;3.30;;
60016;SDS011;45869;52.698;6.210;2022-08-25T05:44:16;5.85;;;3.30;;
60016;SDS011;45869;52.698;6.210;2022-08-25T05:46:41;6.20;;;3.58;;
60016;SDS011;45869;52.698;6.210;2022-08-25T05:49:08;6.05;;;3.30;;
60016;SDS011;45869;52.698;6.210;2022-08-25T05:51:34;6.07;;;3.30;;
60016;SDS011;45869;52.698;6.210;2022-08-25T05:54:00;5.57;;;3.47;;
60016;SDS011;45869;52.698;6.210;2022-08-25T05:56:27;9.93;;;3.50;;
60016;SDS011;45869;52.698;6.210;2022-08-25T05:58:56;5.63;;;3.40;;
60016;SDS011;45869;52.698;6.210;2022-08-25T06:01:26;7.47;;;3.30;;
60016;SDS011;45869;52.698;6.210;2022-08-25T06:04:14;5.78;;;3.28;;
60016;SDS011;45869;52.698;6.210;2022-08-25T06:06:42;6.65;;;3.25;;
60016;SDS011;45869;52.698;6.210;2022-08-25T06:09:08;5.25;;;3.30;;
60016;SDS011;45869;52.698;6.210;2022-08-25T06:11:37;7.10;;;3.33;;
60016;SDS011;45869;52.698;6.210;2022-08-25T06:14:04;7.03;;;3.42;;
60016;SDS011;45869;52.698;6.210;2022-08-25T06:16:33;6.82;;;3.13;;
60016;SDS011;45869;52.698;6.210;2022-08-25T06:18:59;8.70;;;3.42;;
60016;SDS011;45869;52.698;6.210;2022-08-25T06:21:25;10.55;;;3.40;;
60016;SDS011;45869;52.698;6.210;2022-08-25T06:23:54;6.45;;;3.28;;
60016;SDS011;45869;52.698;6.210;2022-08-25T06:26:20;4.43;;;3.22;;
60016;SDS011;45869;52.698;6.210;2022-08-25T06:28:46;6.07;;;3.58;;
60016;SDS011;45869;52.698;6.210;2022-08-25T06:31:13;7.00;;;3.70;;
60016;SDS011;45869;52.698;6.210;2022-08-25T06:33:39;6.93;;;3.45;;
60016;SDS011;45869;52.698;6.210;2022-08-25T06:36:05;7.15;;;3.45;;
60016;SDS011;45869;52.698;6.210;2022-08-25T06:38:31;5.75;;;3.60;;
60016;SDS011;45869;52.698;6.210;2022-08-25T06:41:00;6.78;;;3.30;;
60016;SDS011;45869;52.698;6.210;2022-08-25T06:43:26;5.88;;;3.70;;
60016;SDS011;45869;52.698;6.210;2022-08-25T06:45:51;9.90;;;4.00;;
60016;SDS011;45869;52.698;6.210;2022-08-25T06:48:20;5.18;;;3.25;;
60016;SDS011;45869;52.698;6.210;2022-08-25T06:50:47;8.70;;;3.50;;
60016;SDS011;45869;52.698;6.210;2022-08-25T06:53:13;7.00;;;3.55;;
60016;SDS011;45869;52.698;6.210;2022-08-25T06:55:40;6.78;;;3.42;;
60016;SDS011;45869;52.698;6.210;2022-08-25T06:58:06;6.53;;;3.53;;
60016;SDS011;45869;52.698;6.210;2022-08-25T07:00:33;5.18;;;3.40;;
60016;SDS011;45869;52.698;6.210;2022-08-25T07:02:59;9.02;;;3.65;;
60016;SDS011;45869;52.698;6.210;2022-08-25T07:05:26;5.47;;;3.70;;
60016;SDS011;45869;52.698;6.210;2022-08-25T07:07:55;7.20;;;3.50;;
60016;SDS011;45869;52.698;6.210;2022-08-25T07:10:21;5.63;;;3.30;;
60016;SDS011;45869;52.698;6.210;2022-08-25T07:12:47;6.25;;;3.40;;
60016;SDS011;45869;52.698;6.210;2022-08-25T07:15:14;6.07;;;3.20;;
60016;SDS011;45869;52.698;6.210;2022-08-25T07:17:40;7.55;;;3.13;;
60016;SDS011;45869;52.698;6.210;2022-08-25T07:20:06;8.02;;;3.50;;
60016;SDS011;45869;52.698;6.210;2022-08-25T07:22:32;6.50;;;3.28;;
60016;SDS011;45869;52.698;6.210;2022-08-25T07:24:58;7.07;;;3.33;;
60016;SDS011;45869;52.698;6.210;2022-08-25T07:27:27;4.30;;;3.28;;
60016;SDS011;45869;52.698;6.210;2022-08-25T07:29:56;5.85;;;3.10;;
60016;SDS011;45869;52.698;6.210;2022-08-25T07:32:23;5.97;;;3.38;;
60016;SDS011;45869;52.698;6.210;2022-08-25T07:34:49;5.63;;;3.25;;
60016;SDS011;45869;52.698;6.210;2022-08-25T07:37:36;11.10;;;3.30;;
60016;SDS011;45869;52.698;6.210;2022-08-25T07:40:02;7.75;;;2.97;;
60016;SDS011;45869;52.698;6.210;2022-08-25T07:42:29;6.10;;;3.20;;
60016;SDS011;45869;52.698;6.210;2022-08-25T07:44:55;6.85;;;3.10;;
60016;SDS011;45869;52.698;6.210;2022-08-25T07:47:21;6.30;;;2.88;;
60016;SDS011;45869;52.698;6.210;2022-08-25T07:49:47;4.10;;;2.85;;
60016;SDS011;45869;52.698;6.210;2022-08-25T07:52:16;6.93;;;3.00;;
60016;SDS011;45869;52.698;6.210;2022-08-25T07:54:41;6.13;;;2.65;;
60016;SDS011;45869;52.698;6.210;2022-08-25T07:57:08;6.22;;;2.83;;
60016;SDS011;45869;52.698;6.210;2022-08-25T07:59:37;6.32;;;2.85;;
60016;SDS011;45869;52.698;6.210;2022-08-25T08:02:08;5.43;;;2.47;;
60016;SDS011;45869;52.698;6.210;2022-08-25T08:04:37;7.05;;;3.17;;
60016;SDS011;45869;52.698;6.210;2022-08-25T08:07:04;7.40;;;2.83;;
60016;SDS011;45869;52.698;6.210;2022-08-25T08:09:30;7.03;;;2.78;;
60016;SDS011;45869;52.698;6.210;2022-08-25T08:11:56;4.07;;;2.10;;
60016;SDS011;45869;52.698;6.210;2022-08-25T08:14:22;4.38;;;2.40;;
60016;SDS011;45869;52.698;6.210;2022-08-25T08:16:48;6.20;;;2.25;;
60016;SDS011;45869;52.698;6.210;2022-08-25T08:19:16;5.30;;;2.33;;
60016;SDS011;45869;52.698;6.210;2022-08-25T08:21:42;7.07;;;2.53;;
60016;SDS011;45869;52.698;6.210;2022-08-25T08:24:08;4.55;;;2.53;;
60016;SDS011;45869;52.698;6.210;2022-08-25T08:26:34;6.50;;;2.13;;
60016;SDS011;45869;52.698;6.210;2022-08-25T08:29:02;5.22;;;2.20;;
60016;SDS011;45869;52.698;6.210;2022-08-25T08:31:28;7.13;;;2.38;;
60016;SDS011;45869;52.698;6.210;2022-08-25T08:33:55;4.75;;;2.40;;
60016;SDS011;45869;52.698;6.210;2022-08-25T08:36:22;5.97;;;2.17;;
60016;SDS011;45869;52.698;6.210;2022-08-25T08:38:49;5.25;;;2.25;;
60016;SDS011;45869;52.698;6.210;2022-08-25T08:52:12;5.90;;;2.10;;
60016;SDS011;45869;52.698;6.210;2022-08-25T08:54:39;3.85;;;1.95;;
60016;SDS011;45869;52.698;6.210;2022-08-25T08:57:11;5.78;;;2.15;;
60016;SDS011;45869;52.698;6.210;2022-08-25T08:59:42;3.97;;;1.77;;
60016;SDS011;45869;52.698;6.210;2022-08-25T09:02:12;5.22;;;1.98;;
60016;SDS011;45869;52.698;6.210;2022-08-25T09:04:44;8.50;;;1.95;;
60016;SDS011;45869;52.698;6.210;2022-08-25T09:07:21;3.53;;;1.73;;
60016;SDS011;45869;52.698;6.210;2022-08-25T09:09:48;4.57;;;1.73;;
60016;SDS011;45869;52.698;6.210;2022-08-25T09:17:50;5.97;;;1.70;;
60016;SDS011;45869;52.698;6.210;2022-08-25T09:20:32;6.38;;;1.88;;
60016;SDS011;45869;52.698;6.210;2022-08-25T09:28:29;4.80;;;1.70;;
60016;SDS011;45869;52.698;6.210;2022-08-25T09:31:03;5.32;;;1.70;;
60016;SDS011;45869;52.698;6.210;2022-08-25T09:33:31;4.82;;;1.50;;
60016;SDS011;45869;52.698;6.210;2022-08-25T09:35:57;5.30;;;1.52;;
60016;SDS011;45869;52.698;6.210;2022-08-25T09:38:24;4.35;;;1.45;;
60016;SDS011;45869;52.698;6.210;2022-08-25T09:40:53;2.97;;;1.50;;
60016;SDS011;45869;52.698;6.210;2022-08-25T09:43:20;4.32;;;1.40;;
60016;SDS011;45869;52.698;6.210;2022-08-25T09:45:56;6.05;;;1.42;;
60016;SDS011;45869;52.698;6.210;2022-08-25T09:48:25;5.65;;;1.52;;
60016;SDS011;45869;52.698;6.210;2022-08-25T09:50:52;8.10;;;1.50;;
60016;SDS011;45869;52.698;6.210;2022-08-25T09:53:19;5.03;;;1.48;;
60016;SDS011;45869;52.698;6.210;2022-08-25T09:55:46;3.42;;;1.60;;
60016;SDS011;45869;52.698;6.210;2022-08-25T09:58:20;4.68;;;1.30;;
60016;SDS011;45869;52.698;6.210;2022-08-25T10:01:09;4.10;;;1.50;;
60016;SDS011;45869;52.698;6.210;2022-08-25T10:03:37;4.43;;;1.40;;
60016;SDS011;45869;52.698;6.210;2022-08-25T10:06:04;6.72;;;1.13;;
60016;SDS011;45869;52.698;6.210;2022-08-25T10:08:36;3.65;;;1.35;;
60016;SDS011;45869;52.698;6.210;2022-08-25T10:11:07;4.57;;;1.38;;
60016;SDS011;45869;52.698;6.210;2022-08-25T10:13:39;10.50;;;2.00;;
60016;SDS011;45869;52.698;6.210;2022-08-25T10:18:37;3.42;;;1.65;;
60016;SDS011;45869;52.698;6.210;2022-08-25T10:21:10;5.15;;;1.38;;
60016;SDS011;45869;52.698;6.210;2022-08-25T10:23:41;2.80;;;1.40;;
60016;SDS011;45869;52.698;6.210;2022-08-25T10:26:19;5.00;;;1.30;;
60016;SDS011;45869;52.698;6.210;2022-08-25T10:36:31;3.00;;;1.20;;
60016;SDS011;45869;52.698;6.210;2022-08-25T10:39:00;4.28;;;1.30;;
60016;SDS011;45869;52.698;6.210;2022-08-25T10:47:16;6.05;;;1.50;;
60016;SDS011;45869;52.698;6.210;2022-08-25T10:49:52;4.25;;;1.58;;
60016;SDS011;45869;52.698;6.210;2022-08-25T10:52:24;3.45;;;1.38;;
60016;SDS011;45869;52.698;6.210;2022-08-25T10:57:35;3.45;;;1.33;;
60016;SDS011;45869;52.698;6.210;2022-08-25T11:00:08;5.97;;;1.60;;
60016;SDS011;45869;52.698;6.210;2022-08-25T11:05:16;2.97;;;1.27;;
60016;SDS011;45869;52.698;6.210;2022-08-25T11:07:47;2.75;;;1.40;;
60016;SDS011;45869;52.698;6.210;2022-08-25T11:10:16;6.32;;;1.20;;
60016;SDS011;45869;52.698;6.210;2022-08-25T11:12:49;3.03;;;1.00;;
60016;SDS011;45869;52.698;6.210;2022-08-25T11:15:27;5.15;;;1.20;;
60016;SDS011;45869;52.698;6.210;2022-08-25T11:20:25;3.20;;;1.20;;
60016;SDS011;45869;52.698;6.210;2022-08-25T11:25:28;2.57;;;1.40;;
60016;SDS011;45869;52.698;6.210;2022-08-25T11:28:19;2.75;;;1.20;;
60016;SDS011;45869;52.698;6.210;2022-08-25T11:30:48;2.53;;;1.20;;
60016;SDS011;45869;52.698;6.210;2022-08-25T11:33:16;2.30;;;1.20;;
60016;SDS011;45869;52.698;6.210;2022-08-25T11:38:34;3.95;;;1.02;;
60016;SDS011;45869;52.698;6.210;2022-08-25T11:46:28;2.22;;;1.08;;
60016;SDS011;45869;52.698;6.210;2022-08-25T11:49:11;2.85;;;1.40;;
60016;SDS011;45869;52.698;6.210;2022-08-25T11:51:41;3.28;;;1.10;;
60016;SDS011;45869;52.698;6.210;2022-08-25T11:54:14;2.70;;;1.08;;
60016;SDS011;45869;52.698;6.210;2022-08-25T11:56:41;2.72;;;1.00;;
60016;SDS011;45869;52.698;6.210;2022-08-25T11:59:07;3.30;;;1.10;;
60016;SDS011;45869;52.698;6.210;2022-08-25T12:14:53;4.05;;;1.23;;
60016;SDS011;45869;52.698;6.210;2022-08-25T12:17:21;3.05;;;1.20;;
60016;SDS011;45869;52.698;6.210;2022-08-25T12:19:49;4.82;;;1.30;;
60016;SDS011;45869;52.698;6.210;2022-08-25T12:24:50;2.78;;;1.15;;
60016;SDS011;45869;52.698;6.210;2022-08-25T12:29:50;3.45;;;1.05;;
60016;SDS011;45869;52.698;6.210;2022-08-25T12:32:20;3.08;;;1.13;;
60016;SDS011;45869;52.698;6.210;2022-08-25T12:37:20;2.63;;;1.10;;
60016;SDS011;45869;52.698;6.210;2022-08-25T12:47:34;2.53;;;1.10;;
60016;SDS011;45869;52.698;6.210;2022-08-25T12:52:44;4.78;;;1.10;;
60016;SDS011;45869;52.698;6.210;2022-08-25T12:55:10;2.55;;;1.00;;
60016;SDS011;45869;52.698;6.210;2022-08-25T13:00:20;2.70;;;1.00;;
60016;SDS011;45869;52.698;6.210;2022-08-25T13:13:36;9.70;;;1.30;;
60016;SDS011;45869;52.698;6.210;2022-08-25T13:16:06;3.92;;;1.10;;
60016;SDS011;45869;52.698;6.210;2022-08-25T13:18:34;1.88;;;0.85;;
60016;SDS011;45869;52.698;6.210;2022-08-25T13:23:29;2.78;;;0.90;;
60016;SDS011;45869;52.698;6.210;2022-08-25T13:25:58;3.80;;;1.23;;
60016;SDS011;45869;52.698;6.210;2022-08-25T13:28:28;2.67;;;1.17;;
60016;SDS011;45869;52.698;6.210;2022-08-25T13:31:12;2.22;;;1.00;;
60016;SDS011;45869;52.698;6.210;2022-08-25T13:33:45;2.28;;;1.10;;
60016;SDS011;45869;52.698;6.210;2022-08-25T13:36:14;1.75;;;1.00;;
60016;SDS011;45869;52.698;6.210;2022-08-25T13:39:17;3.28;;;1.00;;
60016;SDS011;45869;52.698;6.210;2022-08-25T13:41:44;2.53;;;1.02;;
60016;SDS011;45869;52.698;6.210;2022-08-25T13:44:14;2.53;;;1.02;;
60016;SDS011;45869;52.698;6.210;2022-08-25T13:46:41;2.90;;;1.20;;
60016;SDS011;45869;52.698;6.210;2022-08-25T13:49:07;4.43;;;1.48;;
60016;SDS011;45869;52.698;6.210;2022-08-25T13:51:33;4.65;;;1.33;;
60016;SDS011;45869;52.698;6.210;2022-08-25T13:54:03;2.78;;;1.20;;
60016;SDS011;45869;52.698;6.210;2022-08-25T13:56:34;2.90;;;1.27;;
60016;SDS011;45869;52.698;6.210;2022-08-25T13:59:02;3.10;;;1.25;;
60016;SDS011;45869;52.698;6.210;2022-08-25T14:01:30;3.28;;;1.40;;
60016;SDS011;45869;52.698;6.210;2022-08-25T14:04:18;3.58;;;1.30;;
60016;SDS011;45869;52.698;6.210;2022-08-25T14:06:43;4.18;;;1.30;;
60016;SDS011;45869;52.698;6.210;2022-08-25T14:09:17;6.28;;;1.40;;
60016;SDS011;45869;52.698;6.210;2022-08-25T14:14:10;5.32;;;1.50;;
60016;SDS011;45869;52.698;6.210;2022-08-25T14:16:57;2.92;;;1.30;;
60016;SDS011;45869;52.698;6.210;2022-08-25T14:19:23;3.15;;;1.42;;
60016;SDS011;45869;52.698;6.210;2022-08-25T14:21:49;5.22;;;1.63;;
60016;SDS011;45869;52.698;6.210;2022-08-25T14:24:17;3.58;;;1.35;;
60016;SDS011;45869;52.698;6.210;2022-08-25T14:26:44;3.00;;;1.25;;
60016;SDS011;45869;52.698;6.210;2022-08-25T14:29:11;2.72;;;1.40;;
60016;SDS011;45869;52.698;6.210;2022-08-25T14:31:38;2.53;;;1.15;;
60016;SDS011;45869;52.698;6.210;2022-08-25T14:34:11;3.00;;;1.40;;
60016;SDS011;45869;52.698;6.210;2022-08-25T14:36:38;4.63;;;1.23;;
60016;SDS011;45869;52.698;6.210;2022-08-25T14:39:04;4.88;;;1.40;;
60016;SDS011;45869;52.698;6.210;2022-08-25T14:41:31;3.50;;;1.58;;
60016;SDS011;45869;52.698;6.210;2022-08-25T14:44:01;2.80;;;1.27;;
60016;SDS011;45869;52.698;6.210;2022-08-25T14:46:28;3.83;;;1.40;;
60016;SDS011;45869;52.698;6.210;2022-08-25T14:48:59;2.65;;;1.40;;
60016;SDS011;45869;52.698;6.210;2022-08-25T14:51:26;5.20;;;1.30;;
60016;SDS011;45869;52.698;6.210;2022-08-25T14:53:53;3.17;;;1.30;;
60016;SDS011;45869;52.698;6.210;2022-08-25T14:56:23;4.05;;;1.52;;
60016;SDS011;45869;52.698;6.210;2022-08-25T14:58:49;3.70;;;1.38;;
60016;SDS011;45869;52.698;6.210;2022-08-25T15:01:24;4.15;;;1.40;;
60016;SDS011;45869;52.698;6.210;2022-08-25T15:03:51;3.05;;;1.52;;
60016;SDS011;45869;52.698;6.210;2022-08-25T15:06:18;3.92;;;1.42;;
60016;SDS011;45869;52.698;6.210;2022-08-25T15:08:44;2.40;;;1.40;;
60016;SDS011;45869;52.698;6.210;2022-08-25T15:11:29;4.03;;;1.42;;
60016;SDS011;45869;52.698;6.210;2022-08-25T15:13:55;3.10;;;1.52;;
60016;SDS011;45869;52.698;6.210;2022-08-25T15:16:29;2.63;;;1.30;;
60016;SDS011;45869;52.698;6.210;2022-08-25T15:18:56;4.63;;;1.52;;
60016;SDS011;45869;52.698;6.210;2022-08-25T15:21:22;2.90;;;1.27;;
60016;SDS011;45869;52.698;6.210;2022-08-25T15:23:48;6.22;;;1.55;;
60016;SDS011;45869;52.698;6.210;2022-08-25T15:26:20;3.13;;;1.35;;
60016;SDS011;45869;52.698;6.210;2022-08-25T15:28:47;3.88;;;1.23;;
60016;SDS011;45869;52.698;6.210;2022-08-25T15:31:14;3.30;;;1.60;;
60016;SDS011;45869;52.698;6.210;2022-08-25T15:33:49;3.05;;;1.25;;
60016;SDS011;45869;52.698;6.210;2022-08-25T15:36:23;3.17;;;1.45;;
60016;SDS011;45869;52.698;6.210;2022-08-25T15:38:49;4.63;;;1.60;;
60016;SDS011;45869;52.698;6.210;2022-08-25T15:41:16;3.78;;;1.40;;
60016;SDS011;45869;52.698;6.210;2022-08-25T15:43:42;2.88;;;1.50;;
60016;SDS011;45869;52.698;6.210;2022-08-25T15:46:09;2.88;;;1.70;;
60016;SDS011;45869;52.698;6.210;2022-08-25T15:48:41;4.05;;;1.50;;
60016;SDS011;45869;52.698;6.210;2022-08-25T15:51:10;3.90;;;1.60;;
60016;SDS011;45869;52.698;6.210;2022-08-25T15:53:36;3.88;;;1.63;;
60016;SDS011;45869;52.698;6.210;2022-08-25T15:56:05;2.85;;;1.55;;
60016;SDS011;45869;52.698;6.210;2022-08-25T15:58:31;5.95;;;1.60;;
60016;SDS011;45869;52.698;6.210;2022-08-25T16:00:59;2.83;;;1.48;;
60016;SDS011;45869;52.698;6.210;2022-08-25T16:03:25;3.90;;;1.70;;
60016;SDS011;45869;52.698;6.210;2022-08-25T16:05:51;2.72;;;1.60;;
60016;SDS011;45869;52.698;6.210;2022-08-25T16:08:17;4.53;;;2.03;;
60016;SDS011;45869;52.698;6.210;2022-08-25T16:10:43;3.55;;;1.80;;
60016;SDS011;45869;52.698;6.210;2022-08-25T16:13:09;2.70;;;1.38;;
60016;SDS011;45869;52.698;6.210;2022-08-25T16:15:35;4.10;;;1.80;;
60016;SDS011;45869;52.698;6.210;2022-08-25T16:18:02;4.38;;;1.55;;
60016;SDS011;45869;52.698;6.210;2022-08-25T16:20:29;3.45;;;1.63;;
60016;SDS011;45869;52.698;6.210;2022-08-25T16:22:56;2.63;;;1.23;;
60016;SDS011;45869;52.698;6.210;2022-08-25T16:25:24;2.95;;;1.50;;
60016;SDS011;45869;52.698;6.210;2022-08-25T16:27:50;2.40;;;1.30;;
60016;SDS011;45869;52.698;6.210;2022-08-25T16:30:17;3.78;;;1.60;;
60016;SDS011;45869;52.698;6.210;2022-08-25T16:32:46;4.97;;;1.58;;
60016;SDS011;45869;52.698;6.210;2022-08-25T16:35:12;3.38;;;1.80;;
60016;SDS011;45869;52.698;6.210;2022-08-25T16:37:38;2.70;;;1.48;;
60016;SDS011;45869;52.698;6.210;2022-08-25T16:40:04;3.88;;;1.85;;
60016;SDS011;45869;52.698;6.210;2022-08-25T16:42:34;4.68;;;1.90;;
60016;SDS011;45869;52.698;6.210;2022-08-25T16:45:00;2.28;;;1.67;;
60016;SDS011;45869;52.698;6.210;2022-08-25T16:47:26;3.08;;;2.13;;
60016;SDS011;45869;52.698;6.210;2022-08-25T16:49:52;4.35;;;1.85;;